KRKD/RKD METAR and TAF weather

Enter ICAO airport designator
Station Type Date Time Source
KRKD METAR 2019/08/22 08:56 UTC NOAA

KRKD 220856Z AUTO 30005KT 10SM OVC005 20/20 A2978 RMK AO2 CIG 001V008 SLP085 P0001 60001 T02000200 53004


Station Type Date Time Source
KRKD Decoded METAR 2019/08/22 08:56 UTC NOAA

Station name not available
Aug 22, 2019 - 04:56 AM EDT / 2019.08.22 0856 UTC
Wind: from the WNW (300 degrees) at 6 MPH (5 KT):0
Visibility: 10 mile(s):0
Sky conditions: overcast
Precipitation last hour: 0.01 inches
Temperature: 68.0 F (20.0 C)
Dew Point: 68.0 F (20.0 C)
Relative Humidity: 100%
Pressure (altimeter): 29.78 in. Hg (1008 hPa)
Pressure tendency: 0.01 inches (0.4 hPa) higher than three hours ago
ob: KRKD 220856Z AUTO 30005KT 10SM OVC005 20/20 A2978 RMK AO2 CIG 001V008 SLP085 P0001 60001 T02000200 53004
cycle: 9

Station Type Date Time Source
KRKD TAF 2019/08/22 09:42 UTC NOAA

TAF
AMD KRKD 220839Z 2209/2306 VRB03KT 2SM BR OVC002
FM221400 22006KT P6SM SCT045 BKN100
FM230200 27003KT 6SM BR SCT003 BKN100

Example: see airport list